createdAt,value
2022-09-01T00:01:22.069Z,89.15
2022-09-01T00:04:13.550Z,90.97
2022-09-01T00:07:00.699Z,90.13
2022-09-01T00:09:48.546Z,88.75
2022-09-01T00:12:36.542Z,87.13
2022-09-01T00:15:24.260Z,89.57
2022-09-01T00:18:11.387Z,86.18
2022-09-01T00:20:59.848Z,88.20
2022-09-01T00:23:46.987Z,89.32
2022-09-01T00:26:34.080Z,86.65
2022-09-01T00:29:21.302Z,89.70
2022-09-01T00:32:08.315Z,83.57
2022-09-01T00:34:55.314Z,89.40
2022-09-01T00:37:42.723Z,92.13
2022-09-01T00:40:29.874Z,93.53
2022-09-01T00:43:36.906Z,90.55
2022-09-01T00:46:30.431Z,91.18
2022-09-01T00:49:35.753Z,92.47
2022-09-01T00:52:32.085Z,87.60
2022-09-01T00:55:25.360Z,90.47
2022-09-01T00:58:18.367Z,91.32
2022-09-01T01:03:55.313Z,85.93
2022-09-01T01:06:49.883Z,87.88
2022-09-01T01:12:27.916Z,85.88
2022-09-01T01:15:15.314Z,86.68
2022-09-01T01:18:02.413Z,88.82
2022-09-01T01:21:21.642Z,91.18
2022-09-01T01:24:33.377Z,90.10
2022-09-01T01:27:22.073Z,86.47
2022-09-01T01:30:11.970Z,90.25
2022-09-01T01:33:04.736Z,91.10
2022-09-01T01:35:53.645Z,90.57
2022-09-01T01:38:43.262Z,93.22
2022-09-01T01:41:32.165Z,91.18
2022-09-01T01:44:27.972Z,90.07
2022-09-01T01:47:15.146Z,90.82
2022-09-01T01:50:03.203Z,90.45
2022-09-01T01:52:58.445Z,86.80
2022-09-01T01:55:49.744Z,89.60
2022-09-01T01:58:36.757Z,88.68
2022-09-01T02:01:28.846Z,89.40
2022-09-01T02:04:17.083Z,90.80
2022-09-01T02:07:04.050Z,90.72
2022-09-01T02:09:50.970Z,93.70
2022-09-01T02:12:38.035Z,91.32
2022-09-01T02:15:25.587Z,91.18
2022-09-01T02:18:19.382Z,93.78
2022-09-01T02:21:15.128Z,89.40
2022-09-01T02:24:08.563Z,90.75
2022-09-01T02:26:59.270Z,90.13
2022-09-01T02:29:46.197Z,89.32
2022-09-01T02:32:33.150Z,88.63
2022-09-01T02:35:20.404Z,90.18
2022-09-01T02:38:08.814Z,91.47
2022-09-01T02:40:58.591Z,88.65
2022-09-01T02:43:46.353Z,87.43
2022-09-01T02:46:33.358Z,90.82
2022-09-01T02:49:25.911Z,91.63
2022-09-01T02:52:15.957Z,90.20
2022-09-01T02:55:03.229Z,91.47
2022-09-01T02:57:51.540Z,89.25
2022-09-01T03:00:39.850Z,91.10
2022-09-01T03:03:26.968Z,89.45
2022-09-01T03:06:15.079Z,92.85
2022-09-01T03:09:12.468Z,93.43
2022-09-01T03:11:59.534Z,88.45
2022-09-01T03:14:46.461Z,93.13
2022-09-01T03:17:33.462Z,84.22
2022-09-01T03:20:21.745Z,87.70
2022-09-01T03:23:10.439Z,89.30
2022-09-01T03:25:58.046Z,86.95
2022-09-01T03:28:46.744Z,90.55
2022-09-01T03:31:33.742Z,90.88
2022-09-01T03:34:21.724Z,90.20
2022-09-01T03:37:09.786Z,88.30
2022-09-01T03:40:00.097Z,90.20
2022-09-01T03:42:47.220Z,87.55
2022-09-01T03:45:38.338Z,85.75
2022-09-01T03:48:28.945Z,87.32
2022-09-01T03:51:16.512Z,87.20
2022-09-01T03:54:03.497Z,89.45
2022-09-01T03:56:51.013Z,88.40
2022-09-01T03:59:43.388Z,90.47
2022-09-01T04:02:30.747Z,90.65
2022-09-01T04:05:23.016Z,92.50
2022-09-01T04:08:12.294Z,90.18
2022-09-01T04:11:03.926Z,88.53
2022-09-01T04:13:51.758Z,89.65
2022-09-01T04:16:57.343Z,87.95
2022-09-01T04:19:44.478Z,85.38
2022-09-01T04:22:32.140Z,88.20
2022-09-01T04:25:23.317Z,86.88
2022-09-01T04:28:23.074Z,86.88
2022-09-01T04:31:19.578Z,88.63
2022-09-01T04:34:16.383Z,89.97
2022-09-01T04:37:08.870Z,88.40
2022-09-01T04:39:57.391Z,90.30
2022-09-01T04:42:45.180Z,89.28
2022-09-01T04:45:36.339Z,91.95
2022-09-01T04:48:23.479Z,93.80
2022-09-01T04:51:13.330Z,95.03
2022-09-01T04:54:03.002Z,91.85
2022-09-01T04:56:52.910Z,96.70
2022-09-01T04:59:40.233Z,98.00
2022-09-01T05:02:29.092Z,97.15
2022-09-01T05:05:16.180Z,96.95
2022-09-01T05:08:03.199Z,96.88
2022-09-01T05:10:52.613Z,94.50
2022-09-01T05:13:39.855Z,93.88
2022-09-01T05:16:28.040Z,95.53
2022-09-01T05:19:15.064Z,96.20
2022-09-01T05:22:02.335Z,94.85
2022-09-01T05:24:51.552Z,96.45
2022-09-01T05:27:49.823Z,96.30
2022-09-01T05:30:37.783Z,97.35
2022-09-01T05:33:24.967Z,94.25
2022-09-01T05:36:14.782Z,95.53
2022-09-01T05:39:03.324Z,92.20
2022-09-01T05:41:50.277Z,94.28
2022-09-01T05:44:44.141Z,95.22
2022-09-01T05:47:33.287Z,96.65
2022-09-01T05:50:21.609Z,98.03
2022-09-01T05:53:18.686Z,99.43
2022-09-01T05:56:13.271Z,99.85
2022-09-01T06:02:09.563Z,101.85
2022-09-01T06:04:57.331Z,98.55
2022-09-01T06:07:44.466Z,101.15
2022-09-01T06:10:32.502Z,98.47
2022-09-01T06:13:21.896Z,97.90
2022-09-01T06:16:16.934Z,97.60
2022-09-01T06:19:04.957Z,96.30
2022-09-01T06:21:52.181Z,97.38
2022-09-01T06:24:43.451Z,97.88
2022-09-01T06:27:33.889Z,101.40
2022-09-01T06:30:24.358Z,101.78
2022-09-01T06:33:14.184Z,117.70
2022-09-01T06:36:04.025Z,129.48
2022-09-01T06:38:51.513Z,134.32
2022-09-01T06:41:38.720Z,140.68
2022-09-01T06:44:25.746Z,148.52
2022-09-01T06:47:12.743Z,142.88
2022-09-01T06:50:00.742Z,144.75
2022-09-01T06:56:13.483Z,140.50
2022-09-01T06:59:05.207Z,138.55
2022-09-01T07:02:01.438Z,136.90
2022-09-01T07:04:51.965Z,134.70
2022-09-01T07:08:05.068Z,134.15
2022-09-01T07:14:17.248Z,130.60
2022-09-01T07:20:27.248Z,129.77
2022-09-01T07:23:17.182Z,126.40
2022-09-01T07:26:06.974Z,121.25
2022-09-01T07:29:01.103Z,115.82
2022-09-01T07:31:49.554Z,112.63
2022-09-01T07:34:39.010Z,113.55
2022-09-01T07:43:45.382Z,103.55
2022-09-01T07:46:40.314Z,104.88
2022-09-01T07:49:30.102Z,104.25
2022-09-01T07:52:22.650Z,105.47
2022-09-01T07:55:12.419Z,105.47
2022-09-01T07:57:59.569Z,111.03
2022-09-01T08:00:47.648Z,120.28
2022-09-01T08:03:34.964Z,117.65
2022-09-01T08:06:29.298Z,120.25
2022-09-01T08:09:37.874Z,124.75
2022-09-01T08:12:28.903Z,126.72
2022-09-01T08:18:24.686Z,114.35
2022-09-01T08:21:12.856Z,114.32
2022-09-01T08:23:59.795Z,114.90
2022-09-01T08:26:46.740Z,108.10
2022-09-01T08:29:34.186Z,109.80
2022-09-01T08:32:22.552Z,105.38
2022-09-01T08:35:12.537Z,110.38
2022-09-01T08:37:59.945Z,111.53
2022-09-01T08:40:57.057Z,110.15
2022-09-01T08:44:24.045Z,114.22
2022-09-01T08:47:15.682Z,111.25
2022-09-01T08:50:06.168Z,109.50
2022-09-01T08:53:20.973Z,107.82
2022-09-01T08:56:11.403Z,103.47
2022-09-01T09:02:13.609Z,118.28
2022-09-01T09:05:22.149Z,120.28
2022-09-01T09:08:39.431Z,126.97
2022-09-01T09:11:32.292Z,152.85
2022-09-01T09:15:03.408Z,143.05
2022-09-01T09:18:00.364Z,133.73
2022-09-01T09:20:48.108Z,123.78
2022-09-01T09:23:42.181Z,122.43
2022-09-01T09:26:42.205Z,125.05
2022-09-01T09:29:29.955Z,135.70
2022-09-01T09:32:39.541Z,138.32
2022-09-01T09:35:31.686Z,136.15
2022-09-01T09:41:27.285Z,126.72
2022-09-01T09:44:25.440Z,125.72
2022-09-01T09:47:44.517Z,128.80
2022-09-01T09:50:35.649Z,125.60
2022-09-01T09:53:29.074Z,124.95
2022-09-01T09:56:19.696Z,128.88
2022-09-01T09:59:57.101Z,132.60
2022-09-01T10:02:46.250Z,136.23
2022-09-01T10:05:43.278Z,139.68
2022-09-01T10:08:37.584Z,139.38
2022-09-01T10:11:33.432Z,136.70
2022-09-01T10:14:50.330Z,138.60
2022-09-01T10:17:44.448Z,142.83
2022-09-01T10:20:33.231Z,147.30
2022-09-01T10:23:20.394Z,147.20
2022-09-01T10:26:30.007Z,141.48
2022-09-01T10:29:25.526Z,139.40
2022-09-01T10:32:34.973Z,136.52
2022-09-01T10:35:30.579Z,133.25
2022-09-01T10:38:22.162Z,130.65
2022-09-01T10:41:14.966Z,136.80
2022-09-01T10:44:11.756Z,134.48
2022-09-01T10:47:06.199Z,134.60
2022-09-01T10:49:54.960Z,134.38
2022-09-01T10:52:43.367Z,135.27
2022-09-01T10:55:34.986Z,152.75
2022-09-01T11:02:22.291Z,147.77
2022-09-01T11:05:00.895Z,167.77
2022-09-01T11:08:15.264Z,160.20
2022-09-01T11:11:08.006Z,177.18
2022-09-01T11:14:01.707Z,190.38
2022-09-01T11:17:25.392Z,172.55
2022-09-01T11:20:37.582Z,155.57
2022-09-01T11:23:27.969Z,172.75
2022-09-01T11:26:33.201Z,164.50
2022-09-01T11:29:56.380Z,157.68
2022-09-01T11:32:47.682Z,147.65
2022-09-01T11:35:35.050Z,150.63
2022-09-01T11:38:24.285Z,148.65
2022-09-01T11:41:39.255Z,150.35
2022-09-01T11:44:32.692Z,157.40
2022-09-01T11:47:36.637Z,152.13
2022-09-01T11:50:34.845Z,153.63
2022-09-01T11:53:24.001Z,151.48
2022-09-01T11:56:25.588Z,149.88
2022-09-01T11:59:12.689Z,158.73
2022-09-01T12:01:59.742Z,155.20
2022-09-01T12:04:46.836Z,161.40
2022-09-01T12:07:46.135Z,167.55
2022-09-01T12:10:38.040Z,165.15
2022-09-01T12:13:24.961Z,159.15
2022-09-01T12:16:21.555Z,158.98
2022-09-01T12:19:08.608Z,157.85
2022-09-01T12:22:06.976Z,152.38
2022-09-01T12:24:54.863Z,147.00
2022-09-01T12:27:41.884Z,147.77
2022-09-01T12:30:29.208Z,148.55
2022-09-01T12:33:25.978Z,149.85
2022-09-01T12:36:31.897Z,150.38
2022-09-01T12:39:25.349Z,149.43
2022-09-01T12:42:41.114Z,148.75
2022-09-01T12:45:46.144Z,145.20
2022-09-01T12:48:36.820Z,149.77
2022-09-01T12:51:29.304Z,161.23
2022-09-01T12:54:25.934Z,154.18
2022-09-01T12:57:27.988Z,144.00
2022-09-01T13:00:25.086Z,146.38
2022-09-01T13:03:15.208Z,150.15
2022-09-01T13:06:03.889Z,148.35
2022-09-01T13:08:50.788Z,150.98
2022-09-01T13:14:45.848Z,150.60
2022-09-01T13:17:32.795Z,147.98
2022-09-01T13:20:20.181Z,151.93
2022-09-01T13:23:07.129Z,151.52
2022-09-01T13:25:54.208Z,151.45
2022-09-01T13:28:41.179Z,164.10
2022-09-01T13:31:30.356Z,161.77
2022-09-01T13:34:23.336Z,159.80
2022-09-01T13:37:11.076Z,165.23
2022-09-01T13:39:58.110Z,158.38
2022-09-01T13:42:49.523Z,163.57
2022-09-01T13:45:37.180Z,161.43
2022-09-01T13:48:24.152Z,160.32
2022-09-01T13:51:16.974Z,150.63
2022-09-01T13:56:53.281Z,143.82
2022-09-01T13:59:41.920Z,146.25
2022-09-01T14:02:29.008Z,144.50
2022-09-01T14:05:21.505Z,149.38
2022-09-01T14:08:11.020Z,146.10
2022-09-01T14:10:58.018Z,158.52
2022-09-01T14:13:45.975Z,166.95
2022-09-01T14:16:33.095Z,157.88
2022-09-01T14:19:20.071Z,149.88
2022-09-01T14:22:07.166Z,149.35
2022-09-01T14:24:54.128Z,147.10
2022-09-01T14:27:42.480Z,146.20
2022-09-01T14:30:32.915Z,141.50
2022-09-01T14:33:24.324Z,143.18
2022-09-01T14:36:22.491Z,138.82
2022-09-01T14:39:09.570Z,154.38
2022-09-01T14:41:56.546Z,148.48
2022-09-01T14:44:43.786Z,142.70
2022-09-01T14:47:31.915Z,141.05
2022-09-01T14:50:22.958Z,140.98
2022-09-01T14:53:11.363Z,136.52
2022-09-01T14:56:00.467Z,138.82
2022-09-01T14:58:48.580Z,132.85
2022-09-01T15:01:35.791Z,133.63
2022-09-01T15:04:23.189Z,130.52
2022-09-01T15:07:10.171Z,133.63
2022-09-01T15:09:59.012Z,136.60
2022-09-01T15:12:45.950Z,140.18
2022-09-01T15:15:33.023Z,146.57
2022-09-01T15:18:20.139Z,157.18
2022-09-01T15:21:07.196Z,161.30
2022-09-01T15:23:54.928Z,165.90
2022-09-01T15:26:42.218Z,178.80
2022-09-01T15:29:34.038Z,182.15
2022-09-01T15:32:28.289Z,171.27
2022-09-01T15:38:03.203Z,154.23
2022-09-01T15:40:57.992Z,155.52
2022-09-01T15:43:45.743Z,152.75
2022-09-01T15:46:33.887Z,151.75
2022-09-01T15:49:21.008Z,149.25
2022-09-01T15:52:07.962Z,147.73
2022-09-01T15:54:54.960Z,143.05
2022-09-01T15:57:41.963Z,143.13
2022-09-01T16:00:30.167Z,139.65
2022-09-01T16:03:17.516Z,140.27
2022-09-01T16:06:05.102Z,134.00
2022-09-01T16:08:54.378Z,136.05
2022-09-01T16:11:41.854Z,134.65
2022-09-01T16:14:32.053Z,133.60
2022-09-01T16:18:00.362Z,136.00
2022-09-01T16:21:00.635Z,135.35
2022-09-01T16:23:50.292Z,130.07
2022-09-01T16:26:38.197Z,131.98
2022-09-01T16:29:47.807Z,129.18
2022-09-01T16:32:36.958Z,131.32
2022-09-01T16:35:39.999Z,129.05
2022-09-01T16:38:36.267Z,128.75
2022-09-01T16:41:48.308Z,128.23
2022-09-01T16:44:51.769Z,124.93
2022-09-01T16:47:44.961Z,130.13
2022-09-01T16:50:50.521Z,128.50
2022-09-01T16:53:55.764Z,131.18
2022-09-01T16:56:58.670Z,128.20
2022-09-01T16:59:55.837Z,126.03
2022-09-01T17:02:59.296Z,126.80
2022-09-01T17:05:55.492Z,126.15
2022-09-01T17:08:55.451Z,125.68
2022-09-01T17:12:17.785Z,125.88
2022-09-01T17:15:10.204Z,124.07
2022-09-01T17:18:30.271Z,122.93
2022-09-01T17:21:35.723Z,124.07
2022-09-01T17:24:39.294Z,122.20
2022-09-01T17:27:45.703Z,122.57
2022-09-01T17:30:36.303Z,119.88
2022-09-01T17:33:50.067Z,116.13
2022-09-01T17:36:48.112Z,119.68
2022-09-01T17:39:45.115Z,117.95
2022-09-01T17:42:38.073Z,118.15
2022-09-01T17:45:31.206Z,117.80
2022-09-01T17:48:22.057Z,110.93
2022-09-01T17:51:12.182Z,109.90
2022-09-01T17:54:13.310Z,112.53
2022-09-01T17:57:11.157Z,110.63
2022-09-01T18:00:24.445Z,110.55
2022-09-01T18:03:29.588Z,109.50
2022-09-01T18:06:36.621Z,107.00
2022-09-01T18:09:26.905Z,106.30
2022-09-01T18:12:19.203Z,106.45
2022-09-01T18:15:11.042Z,101.90
2022-09-01T18:18:05.264Z,101.40
2022-09-01T18:20:58.129Z,102.57
2022-09-01T18:23:47.266Z,102.68
2022-09-01T18:26:36.950Z,99.30
2022-09-01T18:29:28.463Z,98.47
2022-09-01T18:32:27.626Z,96.88
2022-09-01T18:35:41.655Z,94.97
2022-09-01T18:38:44.502Z,95.43
2022-09-01T18:41:45.098Z,95.88
2022-09-01T18:45:05.581Z,97.07
2022-09-01T18:48:08.277Z,93.22
2022-09-01T18:50:59.713Z,96.43
2022-09-01T18:54:16.142Z,95.05
2022-09-01T18:57:06.047Z,93.05
2022-09-01T18:59:59.774Z,93.97
2022-09-01T19:03:02.223Z,93.33
2022-09-01T19:05:52.174Z,93.18
2022-09-01T19:08:50.429Z,91.43
2022-09-01T19:11:46.533Z,90.13
2022-09-01T19:14:55.053Z,89.03
2022-09-01T19:17:54.164Z,93.25
2022-09-01T19:21:04.311Z,92.57
2022-09-01T19:23:54.082Z,96.00
2022-09-01T19:26:44.837Z,91.80
2022-09-01T19:29:37.587Z,92.50
2022-09-01T19:32:28.797Z,92.60
2022-09-01T19:35:17.191Z,87.97
2022-09-01T19:38:05.988Z,92.30
2022-09-01T19:40:58.948Z,90.45
2022-09-01T19:43:48.281Z,91.07
2022-09-01T19:46:44.050Z,90.53
2022-09-01T19:49:57.200Z,90.50
2022-09-01T19:53:02.729Z,85.85
2022-09-01T19:56:15.603Z,90.80
2022-09-01T19:59:27.280Z,91.20
2022-09-01T20:02:30.774Z,89.97
2022-09-01T20:05:33.583Z,86.32
2022-09-01T20:08:39.921Z,88.25
2022-09-01T20:12:12.319Z,85.25
2022-09-01T20:15:34.914Z,88.40
2022-09-01T20:18:31.253Z,84.78
2022-09-01T20:21:21.534Z,86.43
2022-09-01T20:24:19.564Z,90.72
2022-09-01T20:27:12.449Z,88.47
2022-09-01T20:30:07.590Z,87.05
2022-09-01T20:33:05.188Z,87.88
2022-09-01T20:36:02.471Z,86.32
2022-09-01T20:39:14.340Z,85.93
2022-09-01T20:42:19.833Z,85.72
2022-09-01T20:45:19.428Z,84.80
2022-09-01T20:48:23.282Z,86.10
2022-09-01T20:51:21.463Z,84.80
2022-09-01T20:54:20.176Z,86.72
2022-09-01T20:57:29.012Z,86.57
2022-09-01T21:00:27.716Z,82.75
2022-09-01T21:03:32.501Z,83.65
2022-09-01T21:06:54.582Z,80.53
2022-09-01T21:09:55.854Z,83.60
2022-09-01T21:12:52.338Z,81.80
2022-09-01T21:15:55.133Z,80.90
2022-09-01T21:18:53.012Z,80.40
2022-09-01T21:22:07.134Z,82.57
2022-09-01T21:24:54.060Z,80.78
2022-09-01T21:27:51.402Z,85.68
2022-09-01T21:30:38.480Z,82.38
2022-09-01T21:33:29.321Z,84.97
2022-09-01T21:36:16.973Z,82.85
2022-09-01T21:39:03.949Z,83.68
2022-09-01T21:41:50.998Z,84.15
2022-09-01T21:44:39.345Z,81.60
2022-09-01T21:47:26.880Z,83.40
2022-09-01T21:50:16.856Z,81.53
2022-09-01T21:53:04.037Z,81.63
2022-09-01T21:55:50.976Z,81.35
2022-09-01T21:58:39.346Z,78.35
2022-09-01T22:01:31.080Z,84.50
2022-09-01T22:04:18.556Z,80.68
2022-09-01T22:07:09.191Z,81.88
2022-09-01T22:09:57.795Z,80.40
2022-09-01T22:12:47.439Z,81.78
2022-09-01T22:15:34.375Z,81.40
2022-09-01T22:18:22.500Z,79.15
2022-09-01T22:21:11.203Z,81.85
2022-09-01T22:23:58.198Z,82.47
2022-09-01T22:26:46.247Z,81.85
2022-09-01T22:29:33.281Z,81.60
2022-09-01T22:32:21.599Z,80.00
2022-09-01T22:35:10.131Z,79.15
2022-09-01T22:37:57.092Z,80.50
2022-09-01T22:40:56.044Z,80.90
2022-09-01T22:43:43.163Z,81.47
2022-09-01T22:46:30.921Z,81.90
2022-09-01T22:49:18.012Z,79.97
2022-09-01T22:52:05.052Z,75.63
2022-09-01T22:54:52.027Z,78.03
2022-09-01T22:57:39.008Z,76.10
2022-09-01T23:00:26.025Z,74.70
2022-09-01T23:03:14.937Z,77.88
2022-09-01T23:06:07.752Z,77.25
2022-09-01T23:08:56.257Z,77.97
2022-09-01T23:11:43.654Z,75.43
2022-09-01T23:14:30.658Z,75.50
2022-09-01T23:17:17.634Z,75.20
2022-09-01T23:20:08.299Z,77.97
2022-09-01T23:22:55.286Z,76.05
2022-09-01T23:25:43.893Z,75.35
2022-09-01T23:28:31.131Z,73.95
2022-09-01T23:31:21.835Z,75.60
2022-09-01T23:34:09.115Z,76.60
2022-09-01T23:36:56.082Z,73.93
2022-09-01T23:39:43.036Z,73.18
2022-09-01T23:42:30.017Z,77.60
2022-09-01T23:45:17.096Z,74.38
2022-09-01T23:48:04.112Z,76.18
2022-09-01T23:50:54.500Z,74.78
2022-09-01T23:53:41.542Z,73.35
2022-09-01T23:56:29.888Z,72.07
2022-09-01T23:59:16.961Z,75.88
